createdAt,value
2019-03-29T00:02:21.748Z,98.80
2019-03-29T00:04:50.595Z,98.80
2019-03-29T00:07:19.460Z,98.90
2019-03-29T00:09:48.210Z,98.80
2019-03-29T00:12:16.956Z,98.70
2019-03-29T00:14:45.836Z,98.70
2019-03-29T00:17:14.595Z,98.70
2019-03-29T00:19:43.402Z,98.80
2019-03-29T00:22:12.204Z,98.80
2019-03-29T00:24:41.367Z,98.80
2019-03-29T00:27:11.011Z,98.80
2019-03-29T00:29:39.834Z,98.90
2019-03-29T00:32:08.612Z,99.00
2019-03-29T00:34:37.357Z,99.00
2019-03-29T00:37:06.155Z,98.90
2019-03-29T00:39:34.978Z,99.00
2019-03-29T00:42:03.838Z,99.00
2019-03-29T00:44:32.636Z,99.00
2019-03-29T00:47:01.475Z,99.00
2019-03-29T00:49:30.289Z,99.10
2019-03-29T00:51:59.195Z,99.20
2019-03-29T00:54:28.138Z,99.20
2019-03-29T00:56:57.228Z,99.20
2019-03-29T00:59:26.081Z,99.10
2019-03-29T01:01:54.836Z,99.10
2019-03-29T01:04:23.571Z,99.20
2019-03-29T01:06:52.459Z,99.20
2019-03-29T01:09:21.274Z,99.30
2019-03-29T01:11:50.028Z,99.30
2019-03-29T01:14:18.940Z,99.20
2019-03-29T01:16:47.684Z,99.20
2019-03-29T01:19:16.520Z,99.30
2019-03-29T01:21:46.969Z,99.20
2019-03-29T01:24:15.954Z,99.30
2019-03-29T01:26:45.100Z,99.20
2019-03-29T01:29:13.892Z,99.20
2019-03-29T01:31:42.692Z,99.30
2019-03-29T01:34:11.445Z,99.30
2019-03-29T01:36:40.349Z,99.40
2019-03-29T01:39:09.115Z,99.30
2019-03-29T01:41:37.940Z,99.30
2019-03-29T01:44:06.827Z,99.30
2019-03-29T01:46:35.636Z,99.20
2019-03-29T01:49:04.389Z,99.20
2019-03-29T01:51:33.260Z,99.20
2019-03-29T01:54:02.093Z,99.30
2019-03-29T01:56:30.867Z,99.40
2019-03-29T01:58:59.739Z,99.40
2019-03-29T02:01:29.117Z,99.40
2019-03-29T02:03:58.015Z,99.40
2019-03-29T02:06:26.885Z,99.30
2019-03-29T02:08:55.635Z,99.30
2019-03-29T02:11:24.388Z,99.30
2019-03-29T02:13:53.262Z,99.30
2019-03-29T02:16:22.076Z,99.40
2019-03-29T02:18:50.891Z,99.30
2019-03-29T02:21:19.806Z,99.40
2019-03-29T02:23:48.628Z,99.50
2019-03-29T02:26:17.435Z,99.40
2019-03-29T02:28:46.290Z,99.50
2019-03-29T02:31:15.101Z,99.50
2019-03-29T02:33:43.868Z,99.50
2019-03-29T02:36:12.709Z,99.90
2019-03-29T02:38:55.188Z,99.50
2019-03-29T02:41:11.958Z,99.50
2019-03-29T02:43:40.836Z,99.50
2019-03-29T02:46:09.604Z,99.40
2019-03-29T02:48:38.431Z,99.50
2019-03-29T02:51:07.255Z,99.40
2019-03-29T02:53:36.060Z,99.40
2019-03-29T02:56:04.871Z,99.40
2019-03-29T02:58:33.740Z,99.50
2019-03-29T03:01:02.573Z,99.50
2019-03-29T03:03:31.373Z,99.30
2019-03-29T03:06:00.175Z,99.40
2019-03-29T03:08:32.614Z,99.50
2019-03-29T03:10:59.374Z,99.50
2019-03-29T03:13:28.239Z,99.60
2019-03-29T03:15:57.012Z,99.60
2019-03-29T03:18:25.847Z,99.60
2019-03-29T03:20:54.822Z,99.70
2019-03-29T03:23:23.558Z,99.70
2019-03-29T03:25:52.340Z,99.60
2019-03-29T03:28:21.239Z,99.70
2019-03-29T03:30:50.074Z,99.70
2019-03-29T03:33:18.902Z,99.70
2019-03-29T03:35:49.097Z,99.60
2019-03-29T03:38:17.842Z,99.70
2019-03-29T03:40:46.597Z,99.70
2019-03-29T03:43:15.405Z,99.90
2019-03-29T03:45:44.227Z,99.90
2019-03-29T03:48:13.095Z,99.90
2019-03-29T03:50:43.031Z,99.90
2019-03-29T03:53:12.047Z,99.90
2019-03-29T03:55:42.050Z,99.80
2019-03-29T03:58:12.219Z,99.80
2019-03-29T04:00:52.484Z,99.80
2019-03-29T04:03:21.645Z,99.80
2019-03-29T04:05:50.703Z,99.80
2019-03-29T04:08:19.908Z,99.80
2019-03-29T04:10:48.730Z,99.80
2019-03-29T04:13:17.472Z,99.80
2019-03-29T04:15:46.301Z,99.70
2019-03-29T04:18:16.049Z,99.70
2019-03-29T04:20:45.366Z,99.70
2019-03-29T04:23:14.125Z,99.80
2019-03-29T04:25:42.998Z,99.80
2019-03-29T04:28:11.795Z,99.70
2019-03-29T04:30:40.634Z,99.70
2019-03-29T04:33:11.265Z,99.70
2019-03-29T04:35:40.365Z,99.80
2019-03-29T04:38:09.115Z,99.80
2019-03-29T04:40:37.988Z,99.80
2019-03-29T04:43:06.769Z,99.80
2019-03-29T04:45:35.597Z,99.90
2019-03-29T04:48:04.411Z,99.80
2019-03-29T04:50:33.164Z,99.80
2019-03-29T04:53:01.988Z,99.80
2019-03-29T04:55:30.814Z,99.80
2019-03-29T04:57:59.554Z,99.80
2019-03-29T05:00:28.316Z,99.90
2019-03-29T05:02:57.126Z,99.80
2019-03-29T05:05:25.868Z,99.70
2019-03-29T05:07:54.668Z,99.80
2019-03-29T05:10:23.524Z,99.80
2019-03-29T05:12:52.372Z,99.80
2019-03-29T05:15:21.187Z,99.80
2019-03-29T05:17:49.988Z,99.70
2019-03-29T05:20:18.816Z,99.80
2019-03-29T05:22:47.653Z,99.80
2019-03-29T05:25:16.523Z,99.70
2019-03-29T05:27:45.356Z,99.80
2019-03-29T05:30:14.159Z,99.80
2019-03-29T05:32:42.989Z,99.80
2019-03-29T05:35:11.803Z,99.80
2019-03-29T05:37:40.556Z,99.80
2019-03-29T05:40:09.468Z,99.80
2019-03-29T05:42:38.276Z,99.80
2019-03-29T05:45:08.619Z,99.80
2019-03-29T05:47:37.435Z,99.70
2019-03-29T05:50:07.636Z,99.70
2019-03-29T05:52:36.468Z,99.60
2019-03-29T05:55:06.491Z,99.70
2019-03-29T05:57:35.300Z,99.70
2019-03-29T06:00:11.413Z,99.60
2019-03-29T06:02:40.228Z,99.60
2019-03-29T06:05:09.054Z,99.70
2019-03-29T06:07:37.932Z,99.70
2019-03-29T06:10:07.796Z,99.80
2019-03-29T06:12:36.684Z,99.90
2019-03-29T06:15:07.115Z,99.70
2019-03-29T06:17:47.971Z,99.60
2019-03-29T06:20:06.773Z,99.60
2019-03-29T06:22:35.669Z,99.60
2019-03-29T06:25:05.996Z,99.50
2019-03-29T06:27:34.752Z,99.60
2019-03-29T06:30:05.908Z,99.50
2019-03-29T06:32:34.756Z,99.60
2019-03-29T06:35:04.611Z,99.70
2019-03-29T06:37:34.896Z,99.60
2019-03-29T06:40:04.348Z,99.50
2019-03-29T06:42:33.147Z,99.50
2019-03-29T06:45:02.054Z,99.50
2019-03-29T06:47:30.804Z,99.60
2019-03-29T06:49:59.555Z,99.50
2019-03-29T06:52:28.450Z,99.50
2019-03-29T06:54:57.212Z,99.50
2019-03-29T06:57:25.974Z,99.50
2019-03-29T06:59:54.836Z,99.50
2019-03-29T07:02:23.690Z,99.50
2019-03-29T07:04:52.501Z,99.40
2019-03-29T07:07:21.332Z,99.20
2019-03-29T07:09:50.156Z,99.00
2019-03-29T07:12:18.986Z,98.90
2019-03-29T07:14:47.804Z,99.00
2019-03-29T07:17:16.574Z,99.00
2019-03-29T07:19:45.403Z,98.90
2019-03-29T07:22:14.315Z,98.90
2019-03-29T07:24:43.076Z,98.80
2019-03-29T07:27:11.908Z,98.60
2019-03-29T07:29:41.748Z,98.60
2019-03-29T07:32:10.596Z,98.60
2019-03-29T07:34:39.516Z,98.30
2019-03-29T07:37:08.324Z,98.30
2019-03-29T07:39:37.155Z,98.20
2019-03-29T07:42:06.300Z,98.20
2019-03-29T07:44:35.189Z,98.20
2019-03-29T07:47:04.103Z,98.30
2019-03-29T07:49:32.875Z,98.20
2019-03-29T07:52:01.749Z,98.10
2019-03-29T07:54:30.588Z,98.10
2019-03-29T07:56:59.421Z,98.00
2019-03-29T07:59:28.348Z,97.60
2019-03-29T08:01:57.203Z,97.50
2019-03-29T08:04:25.980Z,97.30
2019-03-29T08:06:54.861Z,97.30
2019-03-29T08:09:23.645Z,97.40
2019-03-29T08:11:52.495Z,97.10
2019-03-29T08:14:21.417Z,97.10
2019-03-29T08:16:50.180Z,97.30
2019-03-29T08:19:19.021Z,97.10
2019-03-29T08:21:47.891Z,97.30
2019-03-29T08:24:16.712Z,97.20
2019-03-29T08:26:45.500Z,97.20
2019-03-29T08:29:14.378Z,97.10
2019-03-29T08:31:43.219Z,96.90
2019-03-29T08:34:12.069Z,97.00
2019-03-29T08:40:11.133Z,96.70
2019-03-29T08:42:39.917Z,96.30
2019-03-29T08:45:09.196Z,96.40
2019-03-29T08:47:37.978Z,96.60
2019-03-29T08:50:07.745Z,95.80
2019-03-29T08:52:36.616Z,96.30
2019-03-29T08:55:06.677Z,96.00
2019-03-29T08:57:35.475Z,96.00
2019-03-29T09:00:08.257Z,95.70
2019-03-29T09:02:39.519Z,95.60
2019-03-29T09:05:08.508Z,95.40
2019-03-29T09:07:44.639Z,95.00
2019-03-29T09:10:13.588Z,95.40
2019-03-29T09:12:42.400Z,95.00
2019-03-29T09:15:11.157Z,94.30
2019-03-29T09:17:39.924Z,93.20
2019-03-29T09:20:10.732Z,93.90
2019-03-29T09:22:39.660Z,94.20
2019-03-29T09:25:08.445Z,93.50
2019-03-29T09:27:37.263Z,93.90
2019-03-29T09:30:06.372Z,93.40
2019-03-29T09:32:35.156Z,93.00
2019-03-29T09:35:04.467Z,92.60
2019-03-29T09:37:33.316Z,92.50
2019-03-29T09:40:02.071Z,92.10
2019-03-29T09:42:30.999Z,92.10
2019-03-29T09:44:59.869Z,92.40
2019-03-29T09:47:34.329Z,93.00
2019-03-29T09:49:59.164Z,92.40
2019-03-29T09:52:27.980Z,91.60
2019-03-29T09:54:57.646Z,91.10
2019-03-29T09:57:37.396Z,91.40
2019-03-29T09:59:56.925Z,90.90
2019-03-29T10:02:25.677Z,90.90
2019-03-29T10:04:54.891Z,91.50
2019-03-29T10:07:23.596Z,91.00
2019-03-29T10:09:52.364Z,91.70
2019-03-29T10:12:21.252Z,91.80
2019-03-29T10:14:50.086Z,90.60
2019-03-29T10:17:18.916Z,90.20
2019-03-29T10:19:49.873Z,90.80
2019-03-29T10:22:18.213Z,90.60
2019-03-29T10:24:47.049Z,88.80
2019-03-29T10:27:18.879Z,89.40
2019-03-29T10:29:46.333Z,87.40
2019-03-29T10:32:15.116Z,88.60
2019-03-29T10:34:43.964Z,90.10
2019-03-29T10:37:12.732Z,87.60
2019-03-29T10:39:41.489Z,88.70
2019-03-29T10:42:10.300Z,86.90
2019-03-29T10:44:39.084Z,88.90
2019-03-29T10:47:07.867Z,85.40
2019-03-29T10:49:36.733Z,87.10
2019-03-29T10:52:05.559Z,86.60
2019-03-29T10:54:34.365Z,88.00
2019-03-29T10:57:03.236Z,86.70
2019-03-29T10:59:32.061Z,85.10
2019-03-29T11:02:00.940Z,86.70
2019-03-29T11:04:31.893Z,89.10
2019-03-29T11:07:00.197Z,88.30
2019-03-29T11:09:29.020Z,87.80
2019-03-29T11:11:57.941Z,88.30
2019-03-29T11:14:26.799Z,87.90
2019-03-29T11:16:55.610Z,87.40
2019-03-29T11:19:24.469Z,87.50
2019-03-29T11:21:53.228Z,88.20
2019-03-29T11:24:22.053Z,87.20
2019-03-29T11:26:50.875Z,87.50
2019-03-29T11:29:19.708Z,88.60
2019-03-29T11:31:48.493Z,89.30
2019-03-29T11:34:20.741Z,87.80
2019-03-29T11:36:47.810Z,87.40
2019-03-29T11:39:16.660Z,86.90
2019-03-29T11:41:45.484Z,88.30
2019-03-29T11:44:14.326Z,88.60
2019-03-29T11:46:43.093Z,87.40
2019-03-29T11:49:12.404Z,87.70
2019-03-29T11:51:41.182Z,87.50
2019-03-29T11:54:09.949Z,86.70
2019-03-29T11:56:38.756Z,88.50
2019-03-29T11:59:07.709Z,86.90
2019-03-29T12:01:36.541Z,87.10
2019-03-29T12:04:05.364Z,87.00
2019-03-29T12:06:34.127Z,87.00
2019-03-29T12:09:03.164Z,84.90
2019-03-29T12:11:32.045Z,86.10
2019-03-29T12:14:00.789Z,85.90
2019-03-29T12:16:29.668Z,85.90
2019-03-29T12:18:58.548Z,86.60
2019-03-29T12:21:27.390Z,85.80
2019-03-29T12:23:56.147Z,86.10
2019-03-29T12:26:24.941Z,84.50
2019-03-29T12:28:53.685Z,86.20
2019-03-29T12:31:22.551Z,84.00
2019-03-29T12:33:51.452Z,83.40
2019-03-29T12:36:20.285Z,83.80
2019-03-29T12:38:49.052Z,83.20
2019-03-29T12:41:17.952Z,84.30
2019-03-29T12:43:55.611Z,82.90
2019-03-29T12:46:17.229Z,81.20
2019-03-29T12:48:46.076Z,79.70
2019-03-29T12:51:14.876Z,80.70
2019-03-29T12:53:44.654Z,80.30
2019-03-29T12:56:13.540Z,80.40
2019-03-29T12:58:42.373Z,79.70
2019-03-29T13:01:11.204Z,82.50
2019-03-29T13:03:40.107Z,82.60
2019-03-29T13:06:08.949Z,79.20
2019-03-29T13:08:38.516Z,78.90
2019-03-29T13:11:07.533Z,78.20
2019-03-29T13:13:36.380Z,79.30
2019-03-29T13:16:05.115Z,81.10
2019-03-29T13:18:33.990Z,79.00
2019-03-29T13:21:02.841Z,79.20
2019-03-29T13:23:31.678Z,80.60
2019-03-29T13:26:00.563Z,80.50
2019-03-29T13:28:29.388Z,81.80
2019-03-29T13:30:58.237Z,81.30
2019-03-29T13:33:27.092Z,81.50
2019-03-29T13:35:55.891Z,79.80
2019-03-29T13:38:24.660Z,80.40
2019-03-29T13:40:53.550Z,79.60
2019-03-29T13:43:22.396Z,79.40
2019-03-29T13:45:51.229Z,80.00
2019-03-29T13:48:20.118Z,80.10
2019-03-29T13:50:48.900Z,79.90
2019-03-29T13:53:17.660Z,79.70
2019-03-29T13:55:46.434Z,79.80
2019-03-29T13:58:15.372Z,78.70
2019-03-29T14:00:44.202Z,78.60
2019-03-29T14:03:15.516Z,78.00
2019-03-29T14:05:44.067Z,77.50
2019-03-29T14:08:12.900Z,78.50
2019-03-29T14:10:41.710Z,79.30
2019-03-29T14:13:10.543Z,79.20
2019-03-29T14:15:39.267Z,79.20
2019-03-29T14:18:08.149Z,79.50
2019-03-29T14:20:37.076Z,80.40
2019-03-29T14:23:05.908Z,80.30
2019-03-29T14:25:34.818Z,79.30
2019-03-29T14:28:03.604Z,79.90
2019-03-29T14:30:32.459Z,80.70
2019-03-29T14:33:01.340Z,80.50
2019-03-29T14:35:30.180Z,80.60
2019-03-29T14:37:59.020Z,80.60
2019-03-29T14:40:29.492Z,81.80
2019-03-29T14:42:58.298Z,78.80
2019-03-29T14:45:27.164Z,78.20
2019-03-29T14:47:56.044Z,79.80
2019-03-29T14:50:24.895Z,78.90
2019-03-29T14:52:53.707Z,78.60
2019-03-29T14:55:22.557Z,77.50
2019-03-29T14:57:51.380Z,78.50
2019-03-29T15:00:23.132Z,77.70
2019-03-29T15:02:51.986Z,78.90
2019-03-29T15:05:20.805Z,77.90
2019-03-29T15:07:49.637Z,78.40
2019-03-29T15:10:28.267Z,77.80
2019-03-29T15:12:56.996Z,77.80
2019-03-29T15:15:26.776Z,78.60
2019-03-29T15:17:55.589Z,78.70
2019-03-29T15:20:24.356Z,78.30
2019-03-29T15:22:53.155Z,78.90
2019-03-29T15:25:22.031Z,79.30
2019-03-29T15:27:50.804Z,79.20
2019-03-29T15:30:19.733Z,79.50
2019-03-29T15:32:48.557Z,79.00
2019-03-29T15:35:17.324Z,78.10
2019-03-29T15:37:46.185Z,79.10
2019-03-29T15:40:16.534Z,79.80
2019-03-29T15:42:45.298Z,79.40
2019-03-29T15:45:20.679Z,80.00
2019-03-29T15:47:45.245Z,79.20
2019-03-29T15:50:14.064Z,79.00
2019-03-29T15:52:42.890Z,78.70
2019-03-29T15:55:11.894Z,77.80
2019-03-29T15:57:40.692Z,80.30
2019-03-29T16:00:11.244Z,79.30
2019-03-29T16:02:40.068Z,79.50
2019-03-29T16:05:08.891Z,81.00
2019-03-29T16:07:37.732Z,79.50
2019-03-29T16:10:07.717Z,79.50
2019-03-29T16:12:36.558Z,79.30
2019-03-29T16:15:07.627Z,77.60
2019-03-29T16:17:36.581Z,78.00
2019-03-29T16:20:06.630Z,79.10
2019-03-29T16:22:35.583Z,79.40
2019-03-29T16:25:08.475Z,78.90
2019-03-29T16:27:37.252Z,78.90
2019-03-29T16:30:07.284Z,79.50
2019-03-29T16:32:36.791Z,79.50
2019-03-29T16:35:07.515Z,79.40
2019-03-29T16:37:36.268Z,79.60
2019-03-29T16:40:07.012Z,78.90
2019-03-29T16:42:35.925Z,80.30
2019-03-29T16:45:12.651Z,80.80
2019-03-29T16:47:41.533Z,80.70
2019-03-29T16:50:10.653Z,81.20
2019-03-29T16:52:39.444Z,81.00
2019-03-29T16:55:13.595Z,80.90
2019-03-29T16:57:39.020Z,80.90
2019-03-29T17:00:12.962Z,82.10
2019-03-29T17:02:41.897Z,81.70
2019-03-29T17:05:10.888Z,82.40
2019-03-29T17:07:39.702Z,81.80
2019-03-29T17:10:08.989Z,80.90
2019-03-29T17:12:37.822Z,81.20
2019-03-29T17:15:06.724Z,81.60
2019-03-29T17:17:36.385Z,81.50
2019-03-29T17:20:08.908Z,81.80
2019-03-29T17:22:38.132Z,82.60
2019-03-29T17:25:08.590Z,82.40
2019-03-29T17:27:37.392Z,82.60
2019-03-29T17:30:08.637Z,83.20
2019-03-29T17:32:37.517Z,83.80
2019-03-29T17:35:07.677Z,84.40
2019-03-29T17:37:36.453Z,83.20
2019-03-29T17:40:09.077Z,83.10
2019-03-29T17:42:37.844Z,83.50
2019-03-29T17:45:09.557Z,83.30
2019-03-29T17:47:38.387Z,83.70
2019-03-29T17:50:07.349Z,83.70
2019-03-29T17:52:36.174Z,83.70
2019-03-29T17:55:06.974Z,83.70
2019-03-29T17:57:35.749Z,83.90
2019-03-29T18:00:09.790Z,84.50
2019-03-29T18:02:38.661Z,84.80
2019-03-29T18:05:07.836Z,84.90
2019-03-29T18:07:36.635Z,85.00
2019-03-29T18:10:07.413Z,85.10
2019-03-29T18:12:36.277Z,85.10
2019-03-29T18:15:08.765Z,85.40
2019-03-29T18:17:37.747Z,85.20
2019-03-29T18:20:09.325Z,84.90
2019-03-29T18:22:38.141Z,84.40
2019-03-29T18:25:07.653Z,83.20
2019-03-29T18:27:36.419Z,84.70
2019-03-29T18:30:08.029Z,84.50
2019-03-29T18:32:37.085Z,85.20
2019-03-29T18:35:09.948Z,84.60
2019-03-29T18:37:39.165Z,85.00
2019-03-29T18:40:10.955Z,85.50
2019-03-29T18:42:39.732Z,84.80
2019-03-29T18:45:09.093Z,85.30
2019-03-29T18:47:38.042Z,85.70
2019-03-29T18:50:07.003Z,86.90
2019-03-29T18:52:35.853Z,86.70
2019-03-29T18:55:06.476Z,87.50
2019-03-29T18:57:35.301Z,87.60
2019-03-29T19:00:06.411Z,88.10
2019-03-29T19:02:35.274Z,88.60
2019-03-29T19:05:04.512Z,88.80
2019-03-29T19:07:33.284Z,89.00
2019-03-29T19:10:02.115Z,89.60
2019-03-29T19:12:31.010Z,90.00
2019-03-29T19:14:59.812Z,90.20
2019-03-29T19:17:28.686Z,90.40
2019-03-29T19:19:57.522Z,90.50
2019-03-29T19:22:26.358Z,90.50
2019-03-29T19:24:55.349Z,90.70
2019-03-29T19:27:24.197Z,91.00
2019-03-29T19:29:52.990Z,91.30
2019-03-29T19:32:21.860Z,91.40
2019-03-29T19:34:50.685Z,91.50
2019-03-29T19:37:19.501Z,91.50
2019-03-29T19:39:48.599Z,91.60
2019-03-29T19:42:17.582Z,91.60
2019-03-29T19:44:46.404Z,91.60
2019-03-29T19:47:15.284Z,91.70
2019-03-29T19:49:44.107Z,91.80
2019-03-29T19:52:14.845Z,91.90
2019-03-29T19:54:43.684Z,92.00
2019-03-29T19:57:12.427Z,92.10
2019-03-29T19:59:41.235Z,92.10
2019-03-29T20:02:10.065Z,92.20
2019-03-29T20:04:38.884Z,92.30
2019-03-29T20:07:07.852Z,92.40
2019-03-29T20:09:36.740Z,92.50
2019-03-29T20:12:05.638Z,92.50
2019-03-29T20:14:34.516Z,92.60
2019-03-29T20:17:05.363Z,92.70
2019-03-29T20:19:34.181Z,92.70
2019-03-29T20:22:03.077Z,92.70
2019-03-29T20:24:31.996Z,92.80
2019-03-29T20:27:00.819Z,92.80
2019-03-29T20:29:29.637Z,92.80
2019-03-29T20:31:58.517Z,92.90
2019-03-29T20:34:27.326Z,92.90
2019-03-29T20:36:56.091Z,92.90
2019-03-29T20:39:24.982Z,93.00
2019-03-29T20:41:53.787Z,93.00
2019-03-29T20:44:22.681Z,93.00
2019-03-29T20:46:51.660Z,93.10
2019-03-29T20:49:20.420Z,93.20
2019-03-29T20:51:49.308Z,93.30
2019-03-29T20:54:18.190Z,93.20
2019-03-29T20:56:47.029Z,93.30
2019-03-29T20:59:15.773Z,93.30
2019-03-29T21:01:44.637Z,93.50
2019-03-29T21:04:13.418Z,93.50
2019-03-29T21:06:42.252Z,93.50
2019-03-29T21:09:11.046Z,93.50
2019-03-29T21:11:39.861Z,93.50
2019-03-29T21:14:08.628Z,93.60
2019-03-29T21:16:37.895Z,93.60
2019-03-29T21:19:06.781Z,93.50
2019-03-29T21:21:35.543Z,93.60
2019-03-29T21:24:04.469Z,93.70
2019-03-29T21:26:33.308Z,93.70
2019-03-29T21:29:02.026Z,93.60
2019-03-29T21:31:30.917Z,93.60
2019-03-29T21:33:59.732Z,93.60
2019-03-29T21:36:28.548Z,93.80
2019-03-29T21:38:57.411Z,93.60
2019-03-29T21:41:26.212Z,93.60
2019-03-29T21:43:55.060Z,93.60
2019-03-29T21:46:24.246Z,93.70
2019-03-29T21:48:53.061Z,93.70
2019-03-29T21:51:21.908Z,93.80
2019-03-29T21:53:50.789Z,93.80
2019-03-29T21:56:19.596Z,93.90
2019-03-29T21:58:48.451Z,93.80
2019-03-29T22:01:17.340Z,94.20
2019-03-29T22:03:46.095Z,93.90
2019-03-29T22:06:14.933Z,93.90
2019-03-29T22:08:43.819Z,94.20
2019-03-29T22:11:12.636Z,93.90
2019-03-29T22:13:41.468Z,94.00
2019-03-29T22:16:10.341Z,94.00
2019-03-29T22:18:39.186Z,94.10
2019-03-29T22:21:08.028Z,94.00
2019-03-29T22:23:36.821Z,94.00
2019-03-29T22:26:05.660Z,94.30
2019-03-29T22:28:34.498Z,93.90
2019-03-29T22:31:03.349Z,94.00
2019-03-29T22:33:32.116Z,94.10
2019-03-29T22:36:00.957Z,94.10
2019-03-29T22:38:29.763Z,94.00
2019-03-29T22:40:58.566Z,94.10
2019-03-29T22:43:27.346Z,94.10
2019-03-29T22:45:56.228Z,94.10
2019-03-29T22:48:24.986Z,94.20
2019-03-29T22:50:53.782Z,94.20
2019-03-29T22:53:22.584Z,94.10
2019-03-29T22:55:51.335Z,94.20
2019-03-29T22:58:20.076Z,94.20
2019-03-29T23:00:52.174Z,94.20
2019-03-29T23:03:21.035Z,94.20
2019-03-29T23:05:49.844Z,94.30
2019-03-29T23:08:18.642Z,94.20
2019-03-29T23:10:47.469Z,94.20
2019-03-29T23:13:16.308Z,94.20
2019-03-29T23:15:45.159Z,94.20
2019-03-29T23:18:13.956Z,94.30
2019-03-29T23:20:42.777Z,94.30
2019-03-29T23:23:11.630Z,94.30
2019-03-29T23:25:40.380Z,94.30
2019-03-29T23:28:09.108Z,94.20
2019-03-29T23:30:37.915Z,94.20
2019-03-29T23:33:06.750Z,94.20
2019-03-29T23:35:35.560Z,94.30
2019-03-29T23:38:04.444Z,94.20
2019-03-29T23:40:33.263Z,94.20
2019-03-29T23:43:02.126Z,94.30
2019-03-29T23:45:31.006Z,94.30
2019-03-29T23:47:59.799Z,94.20
2019-03-29T23:50:28.558Z,94.20
2019-03-29T23:52:57.454Z,94.20
2019-03-29T23:55:26.261Z,94.20
2019-03-29T23:57:55.582Z,94.20
